sensor_id;sensor_type;location;lat;lon;timestamp;P1;durP1;ratioP1;P2;durP2;ratioP2
15022;SDS011;19850;49.576;10.880;2023-01-20T00:00:27;9.73;;;8.10;;
15022;SDS011;19850;49.576;10.880;2023-01-20T00:04:31;10.77;;;8.80;;
15022;SDS011;19850;49.576;10.880;2023-01-20T00:08:34;10.87;;;8.53;;
15022;SDS011;19850;49.576;10.880;2023-01-20T00:12:37;9.93;;;8.27;;
15022;SDS011;19850;49.576;10.880;2023-01-20T00:16:41;9.53;;;8.50;;
15022;SDS011;19850;49.576;10.880;2023-01-20T00:20:44;10.93;;;8.93;;
15022;SDS011;19850;49.576;10.880;2023-01-20T00:24:46;10.00;;;9.00;;
15022;SDS011;19850;49.576;10.880;2023-01-20T00:28:51;10.43;;;8.63;;
15022;SDS011;19850;49.576;10.880;2023-01-20T00:32:56;10.37;;;8.67;;
15022;SDS011;19850;49.576;10.880;2023-01-20T00:36:59;10.80;;;8.67;;
15022;SDS011;19850;49.576;10.880;2023-01-20T00:41:02;10.33;;;8.30;;
15022;SDS011;19850;49.576;10.880;2023-01-20T00:45:05;9.57;;;8.40;;
15022;SDS011;19850;49.576;10.880;2023-01-20T00:49:10;10.70;;;8.77;;
15022;SDS011;19850;49.576;10.880;2023-01-20T00:53:13;10.07;;;9.00;;
15022;SDS011;19850;49.576;10.880;2023-01-20T00:57:16;10.57;;;9.13;;
15022;SDS011;19850;49.576;10.880;2023-01-20T01:01:19;11.63;;;9.20;;
15022;SDS011;19850;49.576;10.880;2023-01-20T01:05:23;10.53;;;8.87;;
15022;SDS011;19850;49.576;10.880;2023-01-20T01:09:26;10.33;;;9.27;;
15022;SDS011;19850;49.576;10.880;2023-01-20T01:13:29;11.43;;;9.40;;
15022;SDS011;19850;49.576;10.880;2023-01-20T01:17:32;10.97;;;9.87;;
15022;SDS011;19850;49.576;10.880;2023-01-20T01:21:36;11.47;;;9.20;;
15022;SDS011;19850;49.576;10.880;2023-01-20T01:25:39;10.53;;;9.27;;
15022;SDS011;19850;49.576;10.880;2023-01-20T01:29:42;11.07;;;9.87;;
15022;SDS011;19850;49.576;10.880;2023-01-20T01:33:45;11.73;;;10.30;;
15022;SDS011;19850;49.576;10.880;2023-01-20T01:37:50;11.00;;;9.90;;
15022;SDS011;19850;49.576;10.880;2023-01-20T01:41:52;13.23;;;9.77;;
15022;SDS011;19850;49.576;10.880;2023-01-20T01:45:55;12.53;;;9.93;;
15022;SDS011;19850;49.576;10.880;2023-01-20T01:49:58;10.77;;;9.67;;
15022;SDS011;19850;49.576;10.880;2023-01-20T01:54:03;12.73;;;9.83;;
15022;SDS011;19850;49.576;10.880;2023-01-20T01:58:09;11.67;;;10.47;;
15022;SDS011;19850;49.576;10.880;2023-01-20T02:02:13;12.43;;;10.33;;
15022;SDS011;19850;49.576;10.880;2023-01-20T02:06:24;12.17;;;10.00;;
15022;SDS011;19850;49.576;10.880;2023-01-20T02:10:30;11.70;;;10.50;;
15022;SDS011;19850;49.576;10.880;2023-01-20T02:14:33;12.07;;;10.10;;
15022;SDS011;19850;49.576;10.880;2023-01-20T02:18:43;12.07;;;10.17;;
15022;SDS011;19850;49.576;10.880;2023-01-20T02:22:52;12.93;;;11.17;;
15022;SDS011;19850;49.576;10.880;2023-01-20T02:27:01;13.97;;;10.40;;
15022;SDS011;19850;49.576;10.880;2023-01-20T02:35:45;12.00;;;10.80;;
15022;SDS011;19850;49.576;10.880;2023-01-20T02:39:52;12.67;;;11.33;;
15022;SDS011;19850;49.576;10.880;2023-01-20T02:44:01;14.17;;;11.77;;
15022;SDS011;19850;49.576;10.880;2023-01-20T02:48:11;11.97;;;10.77;;
15022;SDS011;19850;49.576;10.880;2023-01-20T02:52:20;12.63;;;10.80;;
15022;SDS011;19850;49.576;10.880;2023-01-20T02:56:26;12.33;;;11.00;;
15022;SDS011;19850;49.576;10.880;2023-01-20T03:00:31;12.30;;;11.03;;
15022;SDS011;19850;49.576;10.880;2023-01-20T03:04:37;12.67;;;11.47;;
15022;SDS011;19850;49.576;10.880;2023-01-20T03:08:44;14.50;;;12.40;;
15022;SDS011;19850;49.576;10.880;2023-01-20T03:12:49;14.70;;;12.37;;
15022;SDS011;19850;49.576;10.880;2023-01-20T03:16:53;13.53;;;12.13;;
15022;SDS011;19850;49.576;10.880;2023-01-20T03:20:56;14.27;;;12.53;;
15022;SDS011;19850;49.576;10.880;2023-01-20T03:25:01;13.07;;;11.50;;
15022;SDS011;19850;49.576;10.880;2023-01-20T03:29:06;12.87;;;11.57;;
15022;SDS011;19850;49.576;10.880;2023-01-20T03:33:11;13.87;;;12.10;;
15022;SDS011;19850;49.576;10.880;2023-01-20T03:37:15;15.10;;;12.60;;
15022;SDS011;19850;49.576;10.880;2023-01-20T03:41:21;14.20;;;12.33;;
15022;SDS011;19850;49.576;10.880;2023-01-20T03:45:31;15.33;;;12.97;;
15022;SDS011;19850;49.576;10.880;2023-01-20T03:49:43;14.90;;;12.83;;
15022;SDS011;19850;49.576;10.880;2023-01-20T03:53:48;14.40;;;12.90;;
15022;SDS011;19850;49.576;10.880;2023-01-20T03:57:55;14.73;;;13.17;;
15022;SDS011;19850;49.576;10.880;2023-01-20T04:02:03;14.43;;;12.93;;
15022;SDS011;19850;49.576;10.880;2023-01-20T04:06:08;17.03;;;14.80;;
15022;SDS011;19850;49.576;10.880;2023-01-20T04:10:13;15.40;;;13.80;;
15022;SDS011;19850;49.576;10.880;2023-01-20T04:14:19;16.57;;;14.13;;
15022;SDS011;19850;49.576;10.880;2023-01-20T04:18:23;15.07;;;13.30;;
15022;SDS011;19850;49.576;10.880;2023-01-20T04:22:27;15.20;;;13.50;;
15022;SDS011;19850;49.576;10.880;2023-01-20T04:26:34;15.70;;;14.00;;
15022;SDS011;19850;49.576;10.880;2023-01-20T04:30:38;16.90;;;14.27;;
15022;SDS011;19850;49.576;10.880;2023-01-20T04:34:41;15.97;;;14.33;;
15022;SDS011;19850;49.576;10.880;2023-01-20T04:38:44;16.90;;;15.10;;
15022;SDS011;19850;49.576;10.880;2023-01-20T04:42:47;17.43;;;15.53;;
15022;SDS011;19850;49.576;10.880;2023-01-20T04:46:51;18.70;;;16.03;;
15022;SDS011;19850;49.576;10.880;2023-01-20T04:50:58;18.73;;;15.97;;
15022;SDS011;19850;49.576;10.880;2023-01-20T04:55:05;18.37;;;15.67;;
15022;SDS011;19850;49.576;10.880;2023-01-20T04:59:08;17.80;;;15.93;;
15022;SDS011;19850;49.576;10.880;2023-01-20T05:03:13;17.93;;;15.47;;
15022;SDS011;19850;49.576;10.880;2023-01-20T05:07:15;18.30;;;15.13;;
15022;SDS011;19850;49.576;10.880;2023-01-20T05:11:18;17.17;;;15.27;;
15022;SDS011;19850;49.576;10.880;2023-01-20T05:15:21;18.50;;;16.60;;
15022;SDS011;19850;49.576;10.880;2023-01-20T05:19:25;19.53;;;17.10;;
15022;SDS011;19850;49.576;10.880;2023-01-20T05:23:28;19.80;;;17.00;;
15022;SDS011;19850;49.576;10.880;2023-01-20T05:27:32;18.30;;;16.37;;
15022;SDS011;19850;49.576;10.880;2023-01-20T05:31:35;17.60;;;15.70;;
15022;SDS011;19850;49.576;10.880;2023-01-20T05:35:45;18.80;;;16.13;;
15022;SDS011;19850;49.576;10.880;2023-01-20T05:39:48;18.03;;;16.07;;
15022;SDS011;19850;49.576;10.880;2023-01-20T05:43:51;18.03;;;15.87;;
15022;SDS011;19850;49.576;10.880;2023-01-20T05:47:54;19.23;;;17.00;;
15022;SDS011;19850;49.576;10.880;2023-01-20T05:51:59;19.80;;;16.43;;
15022;SDS011;19850;49.576;10.880;2023-01-20T05:56:03;18.70;;;16.80;;
15022;SDS011;19850;49.576;10.880;2023-01-20T06:00:07;20.13;;;16.50;;
15022;SDS011;19850;49.576;10.880;2023-01-20T06:04:10;17.10;;;15.37;;
15022;SDS011;19850;49.576;10.880;2023-01-20T06:08:15;18.63;;;16.67;;
15022;SDS011;19850;49.576;10.880;2023-01-20T06:12:22;19.60;;;16.97;;
15022;SDS011;19850;49.576;10.880;2023-01-20T06:16:29;19.77;;;17.30;;
15022;SDS011;19850;49.576;10.880;2023-01-20T06:20:32;19.03;;;16.27;;
15022;SDS011;19850;49.576;10.880;2023-01-20T06:24:36;19.20;;;16.43;;
15022;SDS011;19850;49.576;10.880;2023-01-20T06:28:39;18.67;;;16.70;;
15022;SDS011;19850;49.576;10.880;2023-01-20T06:32:42;21.13;;;18.50;;
15022;SDS011;19850;49.576;10.880;2023-01-20T06:36:47;19.40;;;17.30;;
15022;SDS011;19850;49.576;10.880;2023-01-20T06:40:56;19.47;;;16.87;;
15022;SDS011;19850;49.576;10.880;2023-01-20T06:44:59;19.47;;;17.37;;
15022;SDS011;19850;49.576;10.880;2023-01-20T06:49:01;21.00;;;18.57;;
15022;SDS011;19850;49.576;10.880;2023-01-20T06:53:04;20.87;;;18.63;;
15022;SDS011;19850;49.576;10.880;2023-01-20T06:57:09;21.33;;;18.40;;
15022;SDS011;19850;49.576;10.880;2023-01-20T07:01:13;20.07;;;17.67;;
15022;SDS011;19850;49.576;10.880;2023-01-20T07:05:18;21.00;;;17.80;;
15022;SDS011;19850;49.576;10.880;2023-01-20T07:09:20;20.53;;;18.30;;
15022;SDS011;19850;49.576;10.880;2023-01-20T07:13:25;19.93;;;17.53;;
15022;SDS011;19850;49.576;10.880;2023-01-20T07:17:27;22.63;;;20.10;;
15022;SDS011;19850;49.576;10.880;2023-01-20T07:21:30;25.10;;;21.50;;
15022;SDS011;19850;49.576;10.880;2023-01-20T07:25:33;22.30;;;19.97;;
15022;SDS011;19850;49.576;10.880;2023-01-20T07:29:39;20.70;;;18.37;;
15022;SDS011;19850;49.576;10.880;2023-01-20T07:33:42;19.60;;;17.53;;
15022;SDS011;19850;49.576;10.880;2023-01-20T07:37:45;21.73;;;18.63;;
15022;SDS011;19850;49.576;10.880;2023-01-20T07:41:48;20.67;;;17.57;;
15022;SDS011;19850;49.576;10.880;2023-01-20T07:45:54;22.33;;;17.67;;
15022;SDS011;19850;49.576;10.880;2023-01-20T07:49:57;19.73;;;17.30;;
15022;SDS011;19850;49.576;10.880;2023-01-20T07:54:00;19.90;;;16.87;;
15022;SDS011;19850;49.576;10.880;2023-01-20T07:58:04;18.63;;;16.63;;
15022;SDS011;19850;49.576;10.880;2023-01-20T08:02:09;20.13;;;17.23;;
15022;SDS011;19850;49.576;10.880;2023-01-20T08:06:12;19.83;;;17.70;;
15022;SDS011;19850;49.576;10.880;2023-01-20T08:10:16;18.27;;;16.37;;
15022;SDS011;19850;49.576;10.880;2023-01-20T08:14:18;20.43;;;17.67;;
15022;SDS011;19850;49.576;10.880;2023-01-20T08:18:23;19.00;;;17.00;;
15022;SDS011;19850;49.576;10.880;2023-01-20T08:22:26;19.70;;;17.70;;
15022;SDS011;19850;49.576;10.880;2023-01-20T08:26:29;18.50;;;16.50;;
15022;SDS011;19850;49.576;10.880;2023-01-20T08:30:32;19.07;;;16.63;;
15022;SDS011;19850;49.576;10.880;2023-01-20T08:34:37;18.37;;;16.27;;
15022;SDS011;19850;49.576;10.880;2023-01-20T08:38:40;18.20;;;16.27;;
15022;SDS011;19850;49.576;10.880;2023-01-20T08:42:44;19.87;;;17.77;;
15022;SDS011;19850;49.576;10.880;2023-01-20T08:46:46;20.17;;;17.57;;
15022;SDS011;19850;49.576;10.880;2023-01-20T08:50:54;20.37;;;17.50;;
15022;SDS011;19850;49.576;10.880;2023-01-20T08:54:56;19.73;;;17.63;;
15022;SDS011;19850;49.576;10.880;2023-01-20T08:59:00;19.43;;;16.87;;
15022;SDS011;19850;49.576;10.880;2023-01-20T09:03:03;20.13;;;17.87;;
15022;SDS011;19850;49.576;10.880;2023-01-20T09:07:08;19.10;;;17.10;;
15022;SDS011;19850;49.576;10.880;2023-01-20T09:11:13;20.27;;;18.17;;
15022;SDS011;19850;49.576;10.880;2023-01-20T09:15:16;18.73;;;16.07;;
15022;SDS011;19850;49.576;10.880;2023-01-20T09:19:20;16.87;;;15.07;;
15022;SDS011;19850;49.576;10.880;2023-01-20T09:23:25;16.77;;;14.97;;
15022;SDS011;19850;49.576;10.880;2023-01-20T09:27:28;17.57;;;15.73;;
15022;SDS011;19850;49.576;10.880;2023-01-20T09:31:31;16.33;;;14.63;;
15022;SDS011;19850;49.576;10.880;2023-01-20T09:35:34;18.10;;;16.17;;
15022;SDS011;19850;49.576;10.880;2023-01-20T09:39:38;16.70;;;14.97;;
15022;SDS011;19850;49.576;10.880;2023-01-20T09:44:00;14.37;;;12.87;;
15022;SDS011;19850;49.576;10.880;2023-01-20T09:48:10;15.87;;;14.00;;
15022;SDS011;19850;49.576;10.880;2023-01-20T09:52:30;15.80;;;14.10;;
15022;SDS011;19850;49.576;10.880;2023-01-20T09:56:53;17.63;;;14.03;;
15022;SDS011;19850;49.576;10.880;2023-01-20T10:00:59;15.93;;;10.40;;
15022;SDS011;19850;49.576;10.880;2023-01-20T10:05:10;11.27;;;10.17;;
15022;SDS011;19850;49.576;10.880;2023-01-20T10:09:16;15.13;;;13.53;;
15022;SDS011;19850;49.576;10.880;2023-01-20T10:13:25;14.63;;;13.20;;
15022;SDS011;19850;49.576;10.880;2023-01-20T10:17:33;14.13;;;12.67;;
15022;SDS011;19850;49.576;10.880;2023-01-20T10:21:40;14.80;;;13.33;;
15022;SDS011;19850;49.576;10.880;2023-01-20T10:25:46;13.23;;;12.00;;
15022;SDS011;19850;49.576;10.880;2023-01-20T10:29:53;13.17;;;11.93;;
15022;SDS011;19850;49.576;10.880;2023-01-20T10:34:00;13.90;;;12.47;;
15022;SDS011;19850;49.576;10.880;2023-01-20T10:38:14;17.33;;;15.13;;
15022;SDS011;19850;49.576;10.880;2023-01-20T10:42:21;14.30;;;12.87;;
15022;SDS011;19850;49.576;10.880;2023-01-20T10:46:40;14.70;;;13.07;;
15022;SDS011;19850;49.576;10.880;2023-01-20T10:50:52;14.80;;;13.20;;
15022;SDS011;19850;49.576;10.880;2023-01-20T10:55:00;13.77;;;12.20;;
15022;SDS011;19850;49.576;10.880;2023-01-20T10:59:10;16.17;;;14.20;;
15022;SDS011;19850;49.576;10.880;2023-01-20T11:03:16;16.27;;;14.27;;
15022;SDS011;19850;49.576;10.880;2023-01-20T11:07:20;15.93;;;14.03;;
15022;SDS011;19850;49.576;10.880;2023-01-20T11:11:24;17.00;;;15.20;;
15022;SDS011;19850;49.576;10.880;2023-01-20T11:15:27;16.63;;;14.13;;
15022;SDS011;19850;49.576;10.880;2023-01-20T11:19:46;14.70;;;13.10;;
15022;SDS011;19850;49.576;10.880;2023-01-20T11:23:51;15.80;;;13.67;;
15022;SDS011;19850;49.576;10.880;2023-01-20T11:27:56;14.07;;;12.67;;
15022;SDS011;19850;49.576;10.880;2023-01-20T11:31:59;11.00;;;9.90;;
15022;SDS011;19850;49.576;10.880;2023-01-20T11:36:04;11.27;;;10.17;;
15022;SDS011;19850;49.576;10.880;2023-01-20T11:40:16;12.37;;;11.07;;
15022;SDS011;19850;49.576;10.880;2023-01-20T11:44:22;24.43;;;18.77;;
15022;SDS011;19850;49.576;10.880;2023-01-20T11:48:24;12.00;;;10.70;;
15022;SDS011;19850;49.576;10.880;2023-01-20T11:52:29;13.00;;;10.93;;
15022;SDS011;19850;49.576;10.880;2023-01-20T11:56:32;13.20;;;11.50;;
15022;SDS011;19850;49.576;10.880;2023-01-20T12:00:39;15.40;;;13.80;;
15022;SDS011;19850;49.576;10.880;2023-01-20T12:04:45;14.83;;;13.33;;
15022;SDS011;19850;49.576;10.880;2023-01-20T12:08:55;15.07;;;12.00;;
15022;SDS011;19850;49.576;10.880;2023-01-20T12:13:02;14.80;;;12.30;;
15022;SDS011;19850;49.576;10.880;2023-01-20T12:17:12;16.63;;;14.10;;
15022;SDS011;19850;49.576;10.880;2023-01-20T12:21:19;16.33;;;13.77;;
15022;SDS011;19850;49.576;10.880;2023-01-20T12:25:26;15.20;;;13.70;;
15022;SDS011;19850;49.576;10.880;2023-01-20T12:29:32;16.50;;;13.80;;
15022;SDS011;19850;49.576;10.880;2023-01-20T12:33:38;17.60;;;12.97;;
15022;SDS011;19850;49.576;10.880;2023-01-20T12:37:43;16.87;;;11.57;;
15022;SDS011;19850;49.576;10.880;2023-01-20T12:41:57;12.27;;;11.00;;
15022;SDS011;19850;49.576;10.880;2023-01-20T12:50:43;12.13;;;10.67;;
15022;SDS011;19850;49.576;10.880;2023-01-20T12:59:21;12.47;;;11.17;;
15022;SDS011;19850;49.576;10.880;2023-01-20T13:03:35;13.47;;;10.90;;
15022;SDS011;19850;49.576;10.880;2023-01-20T13:07:51;12.37;;;10.57;;
15022;SDS011;19850;49.576;10.880;2023-01-20T13:12:09;12.00;;;9.47;;
15022;SDS011;19850;49.576;10.880;2023-01-20T13:16:34;14.77;;;10.97;;
15022;SDS011;19850;49.576;10.880;2023-01-20T13:20:42;13.10;;;10.43;;
15022;SDS011;19850;49.576;10.880;2023-01-20T13:24:47;14.67;;;11.70;;
15022;SDS011;19850;49.576;10.880;2023-01-20T13:28:52;13.53;;;12.13;;
15022;SDS011;19850;49.576;10.880;2023-01-20T13:33:02;14.07;;;12.50;;
15022;SDS011;19850;49.576;10.880;2023-01-20T13:37:22;15.40;;;12.53;;
15022;SDS011;19850;49.576;10.880;2023-01-20T13:45:55;15.60;;;14.00;;
15022;SDS011;19850;49.576;10.880;2023-01-20T13:50:36;21.10;;;17.43;;
15022;SDS011;19850;49.576;10.880;2023-01-20T13:54:46;18.93;;;15.83;;
15022;SDS011;19850;49.576;10.880;2023-01-20T13:58:49;17.30;;;15.33;;
15022;SDS011;19850;49.576;10.880;2023-01-20T14:02:51;11.07;;;9.73;;
15022;SDS011;19850;49.576;10.880;2023-01-20T14:06:57;12.43;;;9.17;;
15022;SDS011;19850;49.576;10.880;2023-01-20T14:11:05;12.13;;;9.40;;
15022;SDS011;19850;49.576;10.880;2023-01-20T14:15:21;12.57;;;10.87;;
15022;SDS011;19850;49.576;10.880;2023-01-20T14:19:26;14.17;;;11.03;;
15022;SDS011;19850;49.576;10.880;2023-01-20T14:23:34;14.30;;;12.70;;
15022;SDS011;19850;49.576;10.880;2023-01-20T14:27:38;16.07;;;12.93;;
15022;SDS011;19850;49.576;10.880;2023-01-20T14:31:45;16.60;;;14.80;;
15022;SDS011;19850;49.576;10.880;2023-01-20T14:35:48;19.20;;;16.47;;
15022;SDS011;19850;49.576;10.880;2023-01-20T14:39:53;20.50;;;17.47;;
15022;SDS011;19850;49.576;10.880;2023-01-20T14:43:57;18.93;;;16.13;;
15022;SDS011;19850;49.576;10.880;2023-01-20T14:48:00;14.73;;;13.07;;
15022;SDS011;19850;49.576;10.880;2023-01-20T14:52:03;16.43;;;13.67;;
15022;SDS011;19850;49.576;10.880;2023-01-20T14:56:12;12.97;;;11.33;;
15022;SDS011;19850;49.576;10.880;2023-01-20T15:00:19;13.40;;;12.00;;
15022;SDS011;19850;49.576;10.880;2023-01-20T15:04:23;13.80;;;12.33;;
15022;SDS011;19850;49.576;10.880;2023-01-20T15:08:26;13.90;;;11.93;;
15022;SDS011;19850;49.576;10.880;2023-01-20T15:12:58;13.30;;;11.93;;
15022;SDS011;19850;49.576;10.880;2023-01-20T15:17:02;14.30;;;12.80;;
15022;SDS011;19850;49.576;10.880;2023-01-20T15:21:11;12.77;;;11.47;;
15022;SDS011;19850;49.576;10.880;2023-01-20T15:25:20;13.90;;;12.20;;
15022;SDS011;19850;49.576;10.880;2023-01-20T15:29:24;13.40;;;11.20;;
15022;SDS011;19850;49.576;10.880;2023-01-20T15:33:28;13.43;;;12.03;;
15022;SDS011;19850;49.576;10.880;2023-01-20T15:37:31;14.27;;;11.87;;
15022;SDS011;19850;49.576;10.880;2023-01-20T15:41:34;12.70;;;11.40;;
15022;SDS011;19850;49.576;10.880;2023-01-20T15:45:38;15.17;;;12.57;;
15022;SDS011;19850;49.576;10.880;2023-01-20T15:49:41;17.97;;;16.07;;
15022;SDS011;19850;49.576;10.880;2023-01-20T15:53:44;18.20;;;15.67;;
15022;SDS011;19850;49.576;10.880;2023-01-20T15:57:48;23.83;;;20.13;;
15022;SDS011;19850;49.576;10.880;2023-01-20T16:01:53;23.07;;;18.97;;
15022;SDS011;19850;49.576;10.880;2023-01-20T16:05:56;14.20;;;12.57;;
15022;SDS011;19850;49.576;10.880;2023-01-20T16:09:59;19.63;;;17.23;;
15022;SDS011;19850;49.576;10.880;2023-01-20T16:14:02;17.73;;;14.60;;
15022;SDS011;19850;49.576;10.880;2023-01-20T16:18:07;15.27;;;13.07;;
15022;SDS011;19850;49.576;10.880;2023-01-20T16:22:13;14.47;;;12.57;;
15022;SDS011;19850;49.576;10.880;2023-01-20T16:26:17;14.47;;;12.07;;
15022;SDS011;19850;49.576;10.880;2023-01-20T16:30:22;14.77;;;13.10;;
15022;SDS011;19850;49.576;10.880;2023-01-20T16:34:27;16.60;;;13.47;;
15022;SDS011;19850;49.576;10.880;2023-01-20T16:38:29;17.03;;;14.83;;
15022;SDS011;19850;49.576;10.880;2023-01-20T16:42:32;16.37;;;13.87;;
15022;SDS011;19850;49.576;10.880;2023-01-20T16:46:36;18.53;;;14.03;;
15022;SDS011;19850;49.576;10.880;2023-01-20T16:50:40;16.20;;;13.43;;
15022;SDS011;19850;49.576;10.880;2023-01-20T16:54:43;16.87;;;14.73;;
15022;SDS011;19850;49.576;10.880;2023-01-20T16:58:46;16.57;;;14.20;;
15022;SDS011;19850;49.576;10.880;2023-01-20T17:02:50;15.40;;;13.60;;
15022;SDS011;19850;49.576;10.880;2023-01-20T17:06:55;15.53;;;12.50;;
15022;SDS011;19850;49.576;10.880;2023-01-20T17:10:58;13.37;;;12.03;;
15022;SDS011;19850;49.576;10.880;2023-01-20T17:15:01;12.90;;;11.60;;
15022;SDS011;19850;49.576;10.880;2023-01-20T17:19:04;13.90;;;12.40;;
15022;SDS011;19850;49.576;10.880;2023-01-20T17:23:08;13.40;;;11.97;;
15022;SDS011;19850;49.576;10.880;2023-01-20T17:27:11;13.97;;;12.00;;
15022;SDS011;19850;49.576;10.880;2023-01-20T17:31:14;12.23;;;10.93;;
15022;SDS011;19850;49.576;10.880;2023-01-20T17:35:16;14.90;;;12.37;;
15022;SDS011;19850;49.576;10.880;2023-01-20T17:39:21;12.97;;;11.57;;
15022;SDS011;19850;49.576;10.880;2023-01-20T17:43:24;13.53;;;12.13;;
15022;SDS011;19850;49.576;10.880;2023-01-20T17:47:27;13.17;;;11.77;;
15022;SDS011;19850;49.576;10.880;2023-01-20T17:51:31;14.87;;;11.90;;
15022;SDS011;19850;49.576;10.880;2023-01-20T17:55:37;11.87;;;10.60;;
15022;SDS011;19850;49.576;10.880;2023-01-20T17:59:39;15.93;;;13.50;;
15022;SDS011;19850;49.576;10.880;2023-01-20T18:03:43;17.23;;;13.27;;
15022;SDS011;19850;49.576;10.880;2023-01-20T18:07:47;14.53;;;13.07;;
15022;SDS011;19850;49.576;10.880;2023-01-20T18:11:51;14.20;;;12.37;;
15022;SDS011;19850;49.576;10.880;2023-01-20T18:15:54;25.43;;;20.93;;
15022;SDS011;19850;49.576;10.880;2023-01-20T18:19:57;15.87;;;13.20;;
15022;SDS011;19850;49.576;10.880;2023-01-20T18:24:00;20.50;;;16.00;;
15022;SDS011;19850;49.576;10.880;2023-01-20T18:28:05;23.63;;;19.70;;
15022;SDS011;19850;49.576;10.880;2023-01-20T18:32:08;19.13;;;16.23;;
15022;SDS011;19850;49.576;10.880;2023-01-20T18:36:11;16.73;;;14.47;;
15022;SDS011;19850;49.576;10.880;2023-01-20T18:40:15;17.50;;;14.97;;
15022;SDS011;19850;49.576;10.880;2023-01-20T18:44:21;13.60;;;12.10;;
15022;SDS011;19850;49.576;10.880;2023-01-20T18:48:24;17.80;;;15.00;;
15022;SDS011;19850;49.576;10.880;2023-01-20T18:52:27;18.40;;;15.03;;
15022;SDS011;19850;49.576;10.880;2023-01-20T18:56:30;19.57;;;15.17;;
15022;SDS011;19850;49.576;10.880;2023-01-20T19:00:35;23.30;;;17.93;;
15022;SDS011;19850;49.576;10.880;2023-01-20T19:04:38;21.00;;;16.87;;
15022;SDS011;19850;49.576;10.880;2023-01-20T19:08:41;23.87;;;21.33;;
15022;SDS011;19850;49.576;10.880;2023-01-20T19:12:45;25.33;;;19.27;;
15022;SDS011;19850;49.576;10.880;2023-01-20T19:16:49;21.67;;;18.00;;
15022;SDS011;19850;49.576;10.880;2023-01-20T19:20:52;20.03;;;16.80;;
15022;SDS011;19850;49.576;10.880;2023-01-20T19:24:54;16.37;;;14.10;;
15022;SDS011;19850;49.576;10.880;2023-01-20T19:28:58;15.50;;;13.53;;
15022;SDS011;19850;49.576;10.880;2023-01-20T19:33:04;22.87;;;19.03;;
15022;SDS011;19850;49.576;10.880;2023-01-20T19:37:07;22.30;;;18.30;;
15022;SDS011;19850;49.576;10.880;2023-01-20T19:41:10;21.03;;;18.00;;
15022;SDS011;19850;49.576;10.880;2023-01-20T19:45:14;23.30;;;19.07;;
15022;SDS011;19850;49.576;10.880;2023-01-20T19:49:18;24.07;;;19.03;;
15022;SDS011;19850;49.576;10.880;2023-01-20T19:53:21;26.13;;;21.07;;
15022;SDS011;19850;49.576;10.880;2023-01-20T19:57:24;9.60;;;6.57;;
15022;SDS011;19850;49.576;10.880;2023-01-20T20:01:28;24.93;;;17.27;;
15022;SDS011;19850;49.576;10.880;2023-01-20T20:05:36;24.35;;;21.75;;
15022;SDS011;19850;49.576;10.880;2023-01-20T20:09:40;21.60;;;18.40;;
15022;SDS011;19850;49.576;10.880;2023-01-20T20:13:43;20.23;;;17.73;;
15022;SDS011;19850;49.576;10.880;2023-01-20T20:17:46;19.57;;;17.57;;
15022;SDS011;19850;49.576;10.880;2023-01-20T20:21:51;21.73;;;18.03;;
15022;SDS011;19850;49.576;10.880;2023-01-20T20:25:55;18.77;;;16.87;;
15022;SDS011;19850;49.576;10.880;2023-01-20T20:29:58;19.53;;;16.37;;
15022;SDS011;19850;49.576;10.880;2023-01-20T20:34:01;19.63;;;17.10;;
15022;SDS011;19850;49.576;10.880;2023-01-20T20:38:07;21.83;;;18.10;;
15022;SDS011;19850;49.576;10.880;2023-01-20T20:42:09;20.37;;;18.10;;
15022;SDS011;19850;49.576;10.880;2023-01-20T20:46:13;21.03;;;17.43;;
15022;SDS011;19850;49.576;10.880;2023-01-20T20:50:17;21.80;;;19.23;;
15022;SDS011;19850;49.576;10.880;2023-01-20T20:54:22;23.33;;;19.13;;
15022;SDS011;19850;49.576;10.880;2023-01-20T20:58:24;24.03;;;21.00;;
15022;SDS011;19850;49.576;10.880;2023-01-20T21:02:27;23.00;;;19.67;;
15022;SDS011;19850;49.576;10.880;2023-01-20T21:06:30;19.80;;;16.93;;
15022;SDS011;19850;49.576;10.880;2023-01-20T21:10:35;25.60;;;20.20;;
15022;SDS011;19850;49.576;10.880;2023-01-20T21:14:38;20.80;;;17.00;;
15022;SDS011;19850;49.576;10.880;2023-01-20T21:18:40;21.30;;;17.17;;
15022;SDS011;19850;49.576;10.880;2023-01-20T21:22:44;20.43;;;16.67;;
15022;SDS011;19850;49.576;10.880;2023-01-20T21:26:48;20.60;;;17.70;;
15022;SDS011;19850;49.576;10.880;2023-01-20T21:30:51;19.60;;;16.43;;
15022;SDS011;19850;49.576;10.880;2023-01-20T21:34:54;17.47;;;14.53;;
15022;SDS011;19850;49.576;10.880;2023-01-20T21:38:59;18.27;;;14.70;;
15022;SDS011;19850;49.576;10.880;2023-01-20T21:43:03;17.53;;;14.87;;
15022;SDS011;19850;49.576;10.880;2023-01-20T21:47:23;19.90;;;15.57;;
15022;SDS011;19850;49.576;10.880;2023-01-20T21:51:26;18.67;;;15.83;;
15022;SDS011;19850;49.576;10.880;2023-01-20T21:55:47;19.97;;;16.63;;
15022;SDS011;19850;49.576;10.880;2023-01-20T21:59:51;20.73;;;17.07;;
15022;SDS011;19850;49.576;10.880;2023-01-20T22:03:53;21.57;;;16.80;;
15022;SDS011;19850;49.576;10.880;2023-01-20T22:07:56;20.33;;;16.63;;
15022;SDS011;19850;49.576;10.880;2023-01-20T22:11:59;18.97;;;16.20;;
15022;SDS011;19850;49.576;10.880;2023-01-20T22:16:03;21.40;;;18.10;;
15022;SDS011;19850;49.576;10.880;2023-01-20T22:20:08;20.87;;;17.50;;
15022;SDS011;19850;49.576;10.880;2023-01-20T22:24:11;19.27;;;17.07;;
15022;SDS011;19850;49.576;10.880;2023-01-20T22:28:14;28.57;;;21.67;;
15022;SDS011;19850;49.576;10.880;2023-01-20T22:32:18;24.10;;;19.20;;
15022;SDS011;19850;49.576;10.880;2023-01-20T22:36:22;23.33;;;20.37;;
15022;SDS011;19850;49.576;10.880;2023-01-20T22:40:25;24.50;;;19.53;;
15022;SDS011;19850;49.576;10.880;2023-01-20T22:44:27;22.23;;;18.17;;
15022;SDS011;19850;49.576;10.880;2023-01-20T22:48:32;20.57;;;16.87;;
15022;SDS011;19850;49.576;10.880;2023-01-20T22:52:35;23.60;;;18.17;;
15022;SDS011;19850;49.576;10.880;2023-01-20T22:56:38;20.97;;;18.30;;
15022;SDS011;19850;49.576;10.880;2023-01-20T23:00:41;19.23;;;16.83;;
15022;SDS011;19850;49.576;10.880;2023-01-20T23:04:46;23.73;;;18.47;;
15022;SDS011;19850;49.576;10.880;2023-01-20T23:08:49;22.87;;;17.80;;
15022;SDS011;19850;49.576;10.880;2023-01-20T23:12:51;21.00;;;17.57;;
15022;SDS011;19850;49.576;10.880;2023-01-20T23:16:54;20.70;;;18.17;;
15022;SDS011;19850;49.576;10.880;2023-01-20T23:20:58;22.97;;;17.13;;
15022;SDS011;19850;49.576;10.880;2023-01-20T23:25:02;24.90;;;18.90;;
15022;SDS011;19850;49.576;10.880;2023-01-20T23:29:04;23.23;;;18.63;;
15022;SDS011;19850;49.576;10.880;2023-01-20T23:33:07;22.43;;;18.33;;
15022;SDS011;19850;49.576;10.880;2023-01-20T23:37:13;21.97;;;17.10;;
15022;SDS011;19850;49.576;10.880;2023-01-20T23:41:15;22.67;;;18.47;;
15022;SDS011;19850;49.576;10.880;2023-01-20T23:45:18;22.33;;;18.10;;
15022;SDS011;19850;49.576;10.880;2023-01-20T23:49:21;22.17;;;18.27;;
15022;SDS011;19850;49.576;10.880;2023-01-20T23:53:25;27.53;;;20.97;;